sensor_id;sensor_type;location;lat;lon;timestamp;P1;durP1;ratioP1;P2;durP2;ratioP2
82781;SDS011;72517;47.260;11.422;2024-02-15T00:02:22;11.95;;;5.20;;
82781;SDS011;72517;47.260;11.422;2024-02-15T00:04:48;10.45;;;4.57;;
82781;SDS011;72517;47.260;11.422;2024-02-15T00:07:15;11.02;;;4.90;;
82781;SDS011;72517;47.260;11.422;2024-02-15T00:09:42;9.60;;;4.57;;
82781;SDS011;72517;47.260;11.422;2024-02-15T00:12:09;9.20;;;4.32;;
82781;SDS011;72517;47.260;11.422;2024-02-15T00:14:36;10.52;;;4.78;;
82781;SDS011;72517;47.260;11.422;2024-02-15T00:17:03;7.70;;;4.43;;
82781;SDS011;72517;47.260;11.422;2024-02-15T00:19:30;8.00;;;4.25;;
82781;SDS011;72517;47.260;11.422;2024-02-15T00:21:57;7.53;;;3.72;;
82781;SDS011;72517;47.260;11.422;2024-02-15T00:24:24;10.77;;;4.50;;
82781;SDS011;72517;47.260;11.422;2024-02-15T00:26:52;7.20;;;4.10;;
82781;SDS011;72517;47.260;11.422;2024-02-15T00:29:19;9.65;;;4.38;;
82781;SDS011;72517;47.260;11.422;2024-02-15T00:31:46;10.02;;;4.85;;
82781;SDS011;72517;47.260;11.422;2024-02-15T00:34:15;7.97;;;4.28;;
82781;SDS011;72517;47.260;11.422;2024-02-15T00:36:42;10.80;;;5.22;;
82781;SDS011;72517;47.260;11.422;2024-02-15T00:39:10;9.25;;;4.70;;
82781;SDS011;72517;47.260;11.422;2024-02-15T00:41:38;10.00;;;5.03;;
82781;SDS011;72517;47.260;11.422;2024-02-15T00:44:08;12.52;;;5.50;;
82781;SDS011;72517;47.260;11.422;2024-02-15T00:46:36;10.32;;;4.63;;
82781;SDS011;72517;47.260;11.422;2024-02-15T00:49:03;11.68;;;4.93;;
82781;SDS011;72517;47.260;11.422;2024-02-15T00:51:32;9.80;;;4.45;;
82781;SDS011;72517;47.260;11.422;2024-02-15T00:54:00;13.23;;;5.32;;
82781;SDS011;72517;47.260;11.422;2024-02-15T00:56:27;11.65;;;5.20;;
82781;SDS011;72517;47.260;11.422;2024-02-15T00:58:55;9.25;;;4.78;;
82781;SDS011;72517;47.260;11.422;2024-02-15T01:01:22;8.73;;;4.53;;
82781;SDS011;72517;47.260;11.422;2024-02-15T01:03:49;9.15;;;5.13;;
82781;SDS011;72517;47.260;11.422;2024-02-15T01:06:15;9.90;;;4.65;;
82781;SDS011;72517;47.260;11.422;2024-02-15T01:08:43;9.82;;;4.93;;
82781;SDS011;72517;47.260;11.422;2024-02-15T01:11:10;12.88;;;4.95;;
82781;SDS011;72517;47.260;11.422;2024-02-15T01:13:38;9.57;;;4.90;;
82781;SDS011;72517;47.260;11.422;2024-02-15T01:16:06;11.93;;;5.13;;
82781;SDS011;72517;47.260;11.422;2024-02-15T01:18:33;10.10;;;4.90;;
82781;SDS011;72517;47.260;11.422;2024-02-15T01:21:00;10.98;;;5.45;;
82781;SDS011;72517;47.260;11.422;2024-02-15T01:23:27;11.02;;;5.15;;
82781;SDS011;72517;47.260;11.422;2024-02-15T01:25:54;10.77;;;5.03;;
82781;SDS011;72517;47.260;11.422;2024-02-15T01:28:22;8.68;;;4.90;;
82781;SDS011;72517;47.260;11.422;2024-02-15T01:30:49;7.85;;;4.22;;
82781;SDS011;72517;47.260;11.422;2024-02-15T01:33:16;10.20;;;4.72;;
82781;SDS011;72517;47.260;11.422;2024-02-15T01:35:43;10.85;;;4.63;;
82781;SDS011;72517;47.260;11.422;2024-02-15T01:38:10;9.73;;;4.70;;
82781;SDS011;72517;47.260;11.422;2024-02-15T01:40:37;8.80;;;4.32;;
82781;SDS011;72517;47.260;11.422;2024-02-15T01:43:04;10.57;;;4.50;;
82781;SDS011;72517;47.260;11.422;2024-02-15T01:45:31;8.45;;;4.53;;
82781;SDS011;72517;47.260;11.422;2024-02-15T01:47:58;7.82;;;4.30;;
82781;SDS011;72517;47.260;11.422;2024-02-15T01:50:25;9.13;;;4.15;;
82781;SDS011;72517;47.260;11.422;2024-02-15T01:52:54;8.63;;;4.50;;
82781;SDS011;72517;47.260;11.422;2024-02-15T01:55:23;9.57;;;4.55;;
82781;SDS011;72517;47.260;11.422;2024-02-15T01:57:50;9.15;;;3.63;;
82781;SDS011;72517;47.260;11.422;2024-02-15T02:00:17;6.40;;;3.83;;
82781;SDS011;72517;47.260;11.422;2024-02-15T02:02:45;7.80;;;3.75;;
82781;SDS011;72517;47.260;11.422;2024-02-15T02:05:12;7.05;;;3.28;;
82781;SDS011;72517;47.260;11.422;2024-02-15T02:07:39;8.65;;;3.42;;
82781;SDS011;72517;47.260;11.422;2024-02-15T02:10:07;6.30;;;3.03;;
82781;SDS011;72517;47.260;11.422;2024-02-15T02:15:05;9.98;;;3.60;;
82781;SDS011;72517;47.260;11.422;2024-02-15T02:17:33;8.75;;;2.90;;
82781;SDS011;72517;47.260;11.422;2024-02-15T02:20:00;6.85;;;3.10;;
82781;SDS011;72517;47.260;11.422;2024-02-15T02:22:33;6.68;;;3.17;;
82781;SDS011;72517;47.260;11.422;2024-02-15T02:25:05;3.77;;;2.20;;
82781;SDS011;72517;47.260;11.422;2024-02-15T02:27:33;5.57;;;2.90;;
82781;SDS011;72517;47.260;11.422;2024-02-15T02:30:02;6.20;;;3.30;;
82781;SDS011;72517;47.260;11.422;2024-02-15T02:32:43;5.95;;;2.92;;
82781;SDS011;72517;47.260;11.422;2024-02-15T02:35:10;8.18;;;3.58;;
82781;SDS011;72517;47.260;11.422;2024-02-15T02:37:38;12.02;;;3.63;;
82781;SDS011;72517;47.260;11.422;2024-02-15T02:40:05;6.88;;;4.05;;
82781;SDS011;72517;47.260;11.422;2024-02-15T02:42:47;8.32;;;4.35;;
82781;SDS011;72517;47.260;11.422;2024-02-15T02:45:24;9.10;;;4.57;;
82781;SDS011;72517;47.260;11.422;2024-02-15T02:47:51;85.18;;;48.25;;
82781;SDS011;72517;47.260;11.422;2024-02-15T02:50:19;149.50;;;89.82;;
82781;SDS011;72517;47.260;11.422;2024-02-15T02:52:49;74.70;;;43.38;;
82781;SDS011;72517;47.260;11.422;2024-02-15T02:55:16;81.95;;;50.17;;
82781;SDS011;72517;47.260;11.422;2024-02-15T02:57:43;22.42;;;13.55;;
82781;SDS011;72517;47.260;11.422;2024-02-15T03:00:11;27.20;;;13.75;;
82781;SDS011;72517;47.260;11.422;2024-02-15T03:02:41;24.85;;;12.77;;
82781;SDS011;72517;47.260;11.422;2024-02-15T03:05:09;18.17;;;9.50;;
82781;SDS011;72517;47.260;11.422;2024-02-15T03:07:38;12.88;;;5.50;;
82781;SDS011;72517;47.260;11.422;2024-02-15T03:10:06;9.40;;;4.65;;
82781;SDS011;72517;47.260;11.422;2024-02-15T03:12:34;11.65;;;5.18;;
82781;SDS011;72517;47.260;11.422;2024-02-15T03:15:05;8.20;;;4.63;;
82781;SDS011;72517;47.260;11.422;2024-02-15T03:17:40;11.68;;;4.70;;
82781;SDS011;72517;47.260;11.422;2024-02-15T03:20:08;9.02;;;4.40;;
82781;SDS011;72517;47.260;11.422;2024-02-15T03:25:07;9.93;;;4.32;;
82781;SDS011;72517;47.260;11.422;2024-02-15T03:27:35;35.33;;;20.38;;
82781;SDS011;72517;47.260;11.422;2024-02-15T03:30:03;159.02;;;92.40;;
82781;SDS011;72517;47.260;11.422;2024-02-15T03:32:30;137.80;;;74.60;;
82781;SDS011;72517;47.260;11.422;2024-02-15T03:34:57;51.05;;;27.95;;
82781;SDS011;72517;47.260;11.422;2024-02-15T03:37:26;12.88;;;7.05;;
82781;SDS011;72517;47.260;11.422;2024-02-15T03:39:53;8.63;;;4.50;;
82781;SDS011;72517;47.260;11.422;2024-02-15T03:42:21;6.90;;;4.22;;
82781;SDS011;72517;47.260;11.422;2024-02-15T03:44:47;7.38;;;4.13;;
82781;SDS011;72517;47.260;11.422;2024-02-15T03:47:15;9.27;;;3.10;;
82781;SDS011;72517;47.260;11.422;2024-02-15T03:49:42;5.63;;;2.78;;
82781;SDS011;72517;47.260;11.422;2024-02-15T03:52:09;8.60;;;3.08;;
82781;SDS011;72517;47.260;11.422;2024-02-15T03:54:36;6.63;;;3.08;;
82781;SDS011;72517;47.260;11.422;2024-02-15T03:57:03;5.88;;;2.35;;
82781;SDS011;72517;47.260;11.422;2024-02-15T03:59:31;4.43;;;2.10;;
82781;SDS011;72517;47.260;11.422;2024-02-15T04:02:00;6.47;;;2.88;;
82781;SDS011;72517;47.260;11.422;2024-02-15T04:04:28;6.20;;;3.08;;
82781;SDS011;72517;47.260;11.422;2024-02-15T04:06:55;9.95;;;4.60;;
82781;SDS011;72517;47.260;11.422;2024-02-15T04:09:23;8.50;;;4.10;;
82781;SDS011;72517;47.260;11.422;2024-02-15T04:11:50;6.63;;;3.40;;
82781;SDS011;72517;47.260;11.422;2024-02-15T04:14:18;8.43;;;3.58;;
82781;SDS011;72517;47.260;11.422;2024-02-15T04:16:45;7.28;;;3.90;;
82781;SDS011;72517;47.260;11.422;2024-02-15T04:19:12;7.90;;;2.88;;
82781;SDS011;72517;47.260;11.422;2024-02-15T04:21:39;4.63;;;2.92;;
82781;SDS011;72517;47.260;11.422;2024-02-15T04:24:09;5.20;;;3.00;;
82781;SDS011;72517;47.260;11.422;2024-02-15T04:26:36;7.22;;;3.50;;
82781;SDS011;72517;47.260;11.422;2024-02-15T04:29:03;8.15;;;2.95;;
82781;SDS011;72517;47.260;11.422;2024-02-15T04:31:32;6.93;;;2.97;;
82781;SDS011;72517;47.260;11.422;2024-02-15T04:34:02;16.85;;;8.90;;
82781;SDS011;72517;47.260;11.422;2024-02-15T04:36:29;49.35;;;24.38;;
82781;SDS011;72517;47.260;11.422;2024-02-15T04:38:59;62.58;;;31.30;;
82781;SDS011;72517;47.260;11.422;2024-02-15T04:41:27;10.02;;;4.70;;
82781;SDS011;72517;47.260;11.422;2024-02-15T04:43:54;6.32;;;3.00;;
82781;SDS011;72517;47.260;11.422;2024-02-15T04:46:22;7.20;;;3.13;;
82781;SDS011;72517;47.260;11.422;2024-02-15T04:48:49;7.28;;;2.90;;
82781;SDS011;72517;47.260;11.422;2024-02-15T04:51:17;5.43;;;3.10;;
82781;SDS011;72517;47.260;11.422;2024-02-15T04:53:44;5.72;;;2.90;;
82781;SDS011;72517;47.260;11.422;2024-02-15T04:56:13;5.57;;;2.77;;
82781;SDS011;72517;47.260;11.422;2024-02-15T04:58:41;5.50;;;2.60;;
82781;SDS011;72517;47.260;11.422;2024-02-15T05:01:15;7.10;;;2.95;;
82781;SDS011;72517;47.260;11.422;2024-02-15T05:03:45;5.13;;;2.72;;
82781;SDS011;72517;47.260;11.422;2024-02-15T05:06:13;6.30;;;2.90;;
82781;SDS011;72517;47.260;11.422;2024-02-15T05:08:40;4.22;;;2.63;;
82781;SDS011;72517;47.260;11.422;2024-02-15T05:11:09;5.50;;;2.88;;
82781;SDS011;72517;47.260;11.422;2024-02-15T05:13:41;6.50;;;3.28;;
82781;SDS011;72517;47.260;11.422;2024-02-15T05:16:09;7.07;;;3.08;;
82781;SDS011;72517;47.260;11.422;2024-02-15T05:18:36;8.45;;;3.33;;
82781;SDS011;72517;47.260;11.422;2024-02-15T05:21:05;10.10;;;3.40;;
82781;SDS011;72517;47.260;11.422;2024-02-15T05:26:07;7.88;;;3.08;;
82781;SDS011;72517;47.260;11.422;2024-02-15T05:28:35;6.28;;;3.10;;
82781;SDS011;72517;47.260;11.422;2024-02-15T05:31:08;7.65;;;2.85;;
82781;SDS011;72517;47.260;11.422;2024-02-15T05:33:41;8.50;;;3.85;;
82781;SDS011;72517;47.260;11.422;2024-02-15T05:36:13;7.18;;;3.78;;
82781;SDS011;72517;47.260;11.422;2024-02-15T05:38:40;7.03;;;3.60;;
82781;SDS011;72517;47.260;11.422;2024-02-15T05:41:10;10.40;;;3.70;;
82781;SDS011;72517;47.260;11.422;2024-02-15T05:43:38;8.82;;;3.67;;
82781;SDS011;72517;47.260;11.422;2024-02-15T05:46:06;4.85;;;3.08;;
82781;SDS011;72517;47.260;11.422;2024-02-15T05:48:35;6.78;;;3.40;;
82781;SDS011;72517;47.260;11.422;2024-02-15T05:51:03;4.90;;;2.92;;
82781;SDS011;72517;47.260;11.422;2024-02-15T05:53:30;6.43;;;2.78;;
82781;SDS011;72517;47.260;11.422;2024-02-15T05:55:58;9.77;;;2.83;;
82781;SDS011;72517;47.260;11.422;2024-02-15T05:58:25;12.05;;;3.42;;
82781;SDS011;72517;47.260;11.422;2024-02-15T06:00:52;6.22;;;3.10;;
82781;SDS011;72517;47.260;11.422;2024-02-15T06:03:20;10.85;;;3.25;;
82781;SDS011;72517;47.260;11.422;2024-02-15T06:05:48;5.28;;;2.60;;
82781;SDS011;72517;47.260;11.422;2024-02-15T06:08:15;7.32;;;3.35;;
82781;SDS011;72517;47.260;11.422;2024-02-15T06:10:42;7.03;;;3.10;;
82781;SDS011;72517;47.260;11.422;2024-02-15T06:13:09;6.20;;;3.50;;
82781;SDS011;72517;47.260;11.422;2024-02-15T06:15:36;15.13;;;5.18;;
82781;SDS011;72517;47.260;11.422;2024-02-15T06:18:03;36.92;;;10.65;;
82781;SDS011;72517;47.260;11.422;2024-02-15T06:20:34;38.03;;;10.77;;
82781;SDS011;72517;47.260;11.422;2024-02-15T06:23:01;29.02;;;9.00;;
82781;SDS011;72517;47.260;11.422;2024-02-15T06:25:32;18.15;;;6.35;;
82781;SDS011;72517;47.260;11.422;2024-02-15T06:27:59;15.35;;;4.70;;
82781;SDS011;72517;47.260;11.422;2024-02-15T06:30:38;10.50;;;3.97;;
82781;SDS011;72517;47.260;11.422;2024-02-15T06:33:23;18.05;;;5.60;;
82781;SDS011;72517;47.260;11.422;2024-02-15T06:36:07;25.33;;;7.28;;
82781;SDS011;72517;47.260;11.422;2024-02-15T06:38:52;20.33;;;6.90;;
82781;SDS011;72517;47.260;11.422;2024-02-15T06:41:36;26.73;;;8.48;;
82781;SDS011;72517;47.260;11.422;2024-02-15T06:44:03;22.23;;;6.85;;
82781;SDS011;72517;47.260;11.422;2024-02-15T06:46:30;25.30;;;7.55;;
82781;SDS011;72517;47.260;11.422;2024-02-15T06:48:57;39.13;;;10.93;;
82781;SDS011;72517;47.260;11.422;2024-02-15T06:51:24;35.00;;;10.50;;
82781;SDS011;72517;47.260;11.422;2024-02-15T06:53:51;35.65;;;9.57;;
82781;SDS011;72517;47.260;11.422;2024-02-15T06:56:20;33.78;;;10.00;;
82781;SDS011;72517;47.260;11.422;2024-02-15T06:58:49;18.80;;;5.22;;
82781;SDS011;72517;47.260;11.422;2024-02-15T07:01:16;21.13;;;5.80;;
82781;SDS011;72517;47.260;11.422;2024-02-15T07:03:43;18.83;;;6.18;;
82781;SDS011;72517;47.260;11.422;2024-02-15T07:06:10;18.80;;;6.65;;
82781;SDS011;72517;47.260;11.422;2024-02-15T07:08:38;20.75;;;6.03;;
82781;SDS011;72517;47.260;11.422;2024-02-15T07:11:06;14.48;;;5.68;;
82781;SDS011;72517;47.260;11.422;2024-02-15T07:13:35;12.80;;;5.10;;
82781;SDS011;72517;47.260;11.422;2024-02-15T07:16:06;8.50;;;3.42;;
82781;SDS011;72517;47.260;11.422;2024-02-15T07:18:34;9.95;;;3.05;;
82781;SDS011;72517;47.260;11.422;2024-02-15T07:21:01;13.02;;;5.28;;
82781;SDS011;72517;47.260;11.422;2024-02-15T07:23:33;14.73;;;6.25;;
82781;SDS011;72517;47.260;11.422;2024-02-15T07:26:00;19.15;;;7.32;;
82781;SDS011;72517;47.260;11.422;2024-02-15T07:28:28;16.40;;;5.40;;
82781;SDS011;72517;47.260;11.422;2024-02-15T07:30:56;15.55;;;5.85;;
82781;SDS011;72517;47.260;11.422;2024-02-15T07:33:23;12.35;;;5.30;;
82781;SDS011;72517;47.260;11.422;2024-02-15T07:35:50;11.82;;;5.40;;
82781;SDS011;72517;47.260;11.422;2024-02-15T07:38:17;10.15;;;5.97;;
82781;SDS011;72517;47.260;11.422;2024-02-15T07:40:44;12.85;;;7.13;;
82781;SDS011;72517;47.260;11.422;2024-02-15T07:43:11;12.95;;;6.75;;
82781;SDS011;72517;47.260;11.422;2024-02-15T07:45:38;13.50;;;6.07;;
82781;SDS011;72517;47.260;11.422;2024-02-15T07:48:05;25.33;;;10.70;;
82781;SDS011;72517;47.260;11.422;2024-02-15T07:50:32;13.55;;;6.03;;
82781;SDS011;72517;47.260;11.422;2024-02-15T07:53:01;12.80;;;5.60;;
82781;SDS011;72517;47.260;11.422;2024-02-15T07:55:30;12.32;;;5.35;;
82781;SDS011;72517;47.260;11.422;2024-02-15T07:57:57;13.85;;;5.30;;
82781;SDS011;72517;47.260;11.422;2024-02-15T08:00:24;8.55;;;4.25;;
82781;SDS011;72517;47.260;11.422;2024-02-15T08:02:53;8.07;;;4.65;;
82781;SDS011;72517;47.260;11.422;2024-02-15T08:05:20;16.00;;;5.07;;
82781;SDS011;72517;47.260;11.422;2024-02-15T08:07:47;14.85;;;5.20;;
82781;SDS011;72517;47.260;11.422;2024-02-15T08:10:14;14.05;;;3.97;;
82781;SDS011;72517;47.260;11.422;2024-02-15T08:12:44;9.27;;;3.45;;
82781;SDS011;72517;47.260;11.422;2024-02-15T08:15:17;12.40;;;3.25;;
82781;SDS011;72517;47.260;11.422;2024-02-15T08:17:44;13.65;;;3.30;;
82781;SDS011;72517;47.260;11.422;2024-02-15T08:20:12;11.85;;;3.13;;
82781;SDS011;72517;47.260;11.422;2024-02-15T08:22:40;8.80;;;3.15;;
82781;SDS011;72517;47.260;11.422;2024-02-15T08:25:12;13.32;;;3.83;;
82781;SDS011;72517;47.260;11.422;2024-02-15T08:27:43;9.68;;;3.72;;
82781;SDS011;72517;47.260;11.422;2024-02-15T08:30:14;9.43;;;3.83;;
82781;SDS011;72517;47.260;11.422;2024-02-15T08:32:43;7.45;;;4.45;;
82781;SDS011;72517;47.260;11.422;2024-02-15T08:35:11;7.40;;;3.72;;
82781;SDS011;72517;47.260;11.422;2024-02-15T08:37:39;7.97;;;4.03;;
82781;SDS011;72517;47.260;11.422;2024-02-15T08:40:09;9.75;;;4.07;;
82781;SDS011;72517;47.260;11.422;2024-02-15T08:42:41;9.02;;;3.80;;
82781;SDS011;72517;47.260;11.422;2024-02-15T08:45:09;5.68;;;3.70;;
82781;SDS011;72517;47.260;11.422;2024-02-15T08:47:37;6.88;;;3.97;;
82781;SDS011;72517;47.260;11.422;2024-02-15T08:50:06;11.43;;;3.70;;
82781;SDS011;72517;47.260;11.422;2024-02-15T08:52:38;5.57;;;3.47;;
82781;SDS011;72517;47.260;11.422;2024-02-15T08:55:09;8.10;;;3.40;;
82781;SDS011;72517;47.260;11.422;2024-02-15T08:57:39;5.97;;;3.53;;
82781;SDS011;72517;47.260;11.422;2024-02-15T09:00:09;6.60;;;3.85;;
82781;SDS011;72517;47.260;11.422;2024-02-15T09:02:41;10.10;;;3.50;;
82781;SDS011;72517;47.260;11.422;2024-02-15T09:05:12;7.70;;;3.60;;
82781;SDS011;72517;47.260;11.422;2024-02-15T09:07:43;7.97;;;3.65;;
82781;SDS011;72517;47.260;11.422;2024-02-15T09:10:13;7.18;;;3.70;;
82781;SDS011;72517;47.260;11.422;2024-02-15T09:12:42;9.02;;;4.68;;
82781;SDS011;72517;47.260;11.422;2024-02-15T09:15:12;8.35;;;4.32;;
82781;SDS011;72517;47.260;11.422;2024-02-15T09:17:39;12.63;;;4.32;;
82781;SDS011;72517;47.260;11.422;2024-02-15T09:20:09;6.40;;;3.72;;
82781;SDS011;72517;47.260;11.422;2024-02-15T09:22:44;8.07;;;3.65;;
82781;SDS011;72517;47.260;11.422;2024-02-15T09:25:15;9.25;;;3.40;;
82781;SDS011;72517;47.260;11.422;2024-02-15T09:27:43;8.43;;;5.77;;
82781;SDS011;72517;47.260;11.422;2024-02-15T09:30:11;6.97;;;3.83;;
82781;SDS011;72517;47.260;11.422;2024-02-15T09:32:39;7.37;;;3.93;;
82781;SDS011;72517;47.260;11.422;2024-02-15T09:35:06;7.18;;;3.92;;
82781;SDS011;72517;47.260;11.422;2024-02-15T09:37:34;7.72;;;2.92;;
82781;SDS011;72517;47.260;11.422;2024-02-15T09:40:12;7.10;;;3.10;;
82781;SDS011;72517;47.260;11.422;2024-02-15T09:42:41;6.35;;;3.03;;
82781;SDS011;72517;47.260;11.422;2024-02-15T09:45:10;7.03;;;3.20;;
82781;SDS011;72517;47.260;11.422;2024-02-15T09:47:40;5.35;;;2.75;;
82781;SDS011;72517;47.260;11.422;2024-02-15T09:52:36;5.53;;;2.50;;
82781;SDS011;72517;47.260;11.422;2024-02-15T09:55:06;6.95;;;2.60;;
82781;SDS011;72517;47.260;11.422;2024-02-15T09:57:38;5.60;;;2.45;;
82781;SDS011;72517;47.260;11.422;2024-02-15T10:00:05;6.15;;;3.00;;
82781;SDS011;72517;47.260;11.422;2024-02-15T10:02:36;6.22;;;2.85;;
82781;SDS011;72517;47.260;11.422;2024-02-15T10:05:06;19.38;;;2.92;;
82781;SDS011;72517;47.260;11.422;2024-02-15T10:07:37;7.60;;;2.83;;
82781;SDS011;72517;47.260;11.422;2024-02-15T10:10:18;5.60;;;2.83;;
82781;SDS011;72517;47.260;11.422;2024-02-15T10:12:50;5.15;;;2.63;;
82781;SDS011;72517;47.260;11.422;2024-02-15T10:18:04;6.10;;;2.85;;
82781;SDS011;72517;47.260;11.422;2024-02-15T10:20:34;6.80;;;2.58;;
82781;SDS011;72517;47.260;11.422;2024-02-15T10:25:42;5.85;;;2.58;;
82781;SDS011;72517;47.260;11.422;2024-02-15T10:28:10;6.23;;;1.80;;
82781;SDS011;72517;47.260;11.422;2024-02-15T10:30:41;2.92;;;1.70;;
82781;SDS011;72517;47.260;11.422;2024-02-15T10:33:10;7.18;;;3.10;;
82781;SDS011;72517;47.260;11.422;2024-02-15T10:36:04;5.75;;;2.60;;
82781;SDS011;72517;47.260;11.422;2024-02-15T10:38:33;5.90;;;3.00;;
82781;SDS011;72517;47.260;11.422;2024-02-15T10:41:04;5.70;;;1.92;;
82781;SDS011;72517;47.260;11.422;2024-02-15T10:43:35;5.72;;;1.77;;
82781;SDS011;72517;47.260;11.422;2024-02-15T10:46:03;5.75;;;1.60;;
82781;SDS011;72517;47.260;11.422;2024-02-15T10:48:32;5.15;;;1.60;;
82781;SDS011;72517;47.260;11.422;2024-02-15T10:51:00;4.78;;;1.27;;
82781;SDS011;72517;47.260;11.422;2024-02-15T10:53:30;4.00;;;1.50;;
82781;SDS011;72517;47.260;11.422;2024-02-15T10:58:32;3.53;;;1.48;;
82781;SDS011;72517;47.260;11.422;2024-02-15T11:01:00;4.53;;;1.42;;
82781;SDS011;72517;47.260;11.422;2024-02-15T11:03:35;4.40;;;1.52;;
82781;SDS011;72517;47.260;11.422;2024-02-15T11:06:06;5.25;;;1.30;;
82781;SDS011;72517;47.260;11.422;2024-02-15T11:08:35;6.88;;;1.35;;
82781;SDS011;72517;47.260;11.422;2024-02-15T11:11:03;4.47;;;1.30;;
82781;SDS011;72517;47.260;11.422;2024-02-15T11:13:30;6.28;;;1.15;;
82781;SDS011;72517;47.260;11.422;2024-02-15T11:15:58;2.50;;;1.10;;
82781;SDS011;72517;47.260;11.422;2024-02-15T11:18:42;5.97;;;1.45;;
82781;SDS011;72517;47.260;11.422;2024-02-15T11:21:10;5.82;;;4.40;;
82781;SDS011;72517;47.260;11.422;2024-02-15T11:26:08;3.65;;;1.80;;
82781;SDS011;72517;47.260;11.422;2024-02-15T11:28:36;4.43;;;1.70;;
82781;SDS011;72517;47.260;11.422;2024-02-15T11:31:03;1.92;;;1.33;;
82781;SDS011;72517;47.260;11.422;2024-02-15T11:33:34;4.32;;;1.40;;
82781;SDS011;72517;47.260;11.422;2024-02-15T11:38:33;3.90;;;1.50;;
82781;SDS011;72517;47.260;11.422;2024-02-15T11:41:06;3.83;;;1.83;;
82781;SDS011;72517;47.260;11.422;2024-02-15T11:46:15;4.15;;;1.38;;
82781;SDS011;72517;47.260;11.422;2024-02-15T11:48:43;3.95;;;1.60;;
82781;SDS011;72517;47.260;11.422;2024-02-15T11:51:21;3.67;;;1.67;;
82781;SDS011;72517;47.260;11.422;2024-02-15T11:56:53;5.43;;;1.65;;
82781;SDS011;72517;47.260;11.422;2024-02-15T11:59:31;5.05;;;1.70;;
82781;SDS011;72517;47.260;11.422;2024-02-15T12:02:18;3.67;;;1.52;;
82781;SDS011;72517;47.260;11.422;2024-02-15T12:05:03;3.72;;;1.65;;
82781;SDS011;72517;47.260;11.422;2024-02-15T12:07:48;8.10;;;1.98;;
82781;SDS011;72517;47.260;11.422;2024-02-15T12:10:33;4.75;;;1.80;;
82781;SDS011;72517;47.260;11.422;2024-02-15T12:13:18;6.93;;;1.58;;
82781;SDS011;72517;47.260;11.422;2024-02-15T12:16:02;4.50;;;1.67;;
82781;SDS011;72517;47.260;11.422;2024-02-15T12:18:52;3.08;;;1.40;;
82781;SDS011;72517;47.260;11.422;2024-02-15T12:21:23;4.50;;;1.50;;
82781;SDS011;72517;47.260;11.422;2024-02-15T12:23:52;3.90;;;1.80;;
82781;SDS011;72517;47.260;11.422;2024-02-15T12:26:20;4.07;;;1.30;;
82781;SDS011;72517;47.260;11.422;2024-02-15T12:28:51;3.75;;;1.60;;
82781;SDS011;72517;47.260;11.422;2024-02-15T12:31:20;4.78;;;1.40;;
82781;SDS011;72517;47.260;11.422;2024-02-15T12:36:26;3.92;;;1.50;;
82781;SDS011;72517;47.260;11.422;2024-02-15T12:39:00;4.22;;;1.40;;
82781;SDS011;72517;47.260;11.422;2024-02-15T12:41:35;4.68;;;1.33;;
82781;SDS011;72517;47.260;11.422;2024-02-15T12:44:06;11.00;;;2.30;;
82781;SDS011;72517;47.260;11.422;2024-02-15T12:46:35;7.10;;;1.40;;
82781;SDS011;72517;47.260;11.422;2024-02-15T12:49:09;3.20;;;1.20;;
82781;SDS011;72517;47.260;11.422;2024-02-15T12:51:52;3.53;;;1.10;;
82781;SDS011;72517;47.260;11.422;2024-02-15T12:54:20;6.20;;;1.50;;
82781;SDS011;72517;47.260;11.422;2024-02-15T12:59:16;4.22;;;1.10;;
82781;SDS011;72517;47.260;11.422;2024-02-15T13:01:44;4.18;;;1.50;;
82781;SDS011;72517;47.260;11.422;2024-02-15T13:04:23;2.67;;;1.00;;
82781;SDS011;72517;47.260;11.422;2024-02-15T13:06:51;1.80;;;1.10;;
82781;SDS011;72517;47.260;11.422;2024-02-15T13:09:18;4.03;;;0.90;;
82781;SDS011;72517;47.260;11.422;2024-02-15T13:11:47;2.03;;;1.10;;
82781;SDS011;72517;47.260;11.422;2024-02-15T13:14:15;3.50;;;1.02;;
82781;SDS011;72517;47.260;11.422;2024-02-15T13:16:42;2.35;;;1.20;;
82781;SDS011;72517;47.260;11.422;2024-02-15T13:19:11;3.33;;;1.10;;
82781;SDS011;72517;47.260;11.422;2024-02-15T13:21:38;6.17;;;1.20;;
82781;SDS011;72517;47.260;11.422;2024-02-15T13:24:05;5.50;;;1.10;;
82781;SDS011;72517;47.260;11.422;2024-02-15T13:26:32;2.90;;;1.05;;
82781;SDS011;72517;47.260;11.422;2024-02-15T13:28:59;3.45;;;1.35;;
82781;SDS011;72517;47.260;11.422;2024-02-15T13:31:26;3.78;;;1.20;;
82781;SDS011;72517;47.260;11.422;2024-02-15T13:33:53;5.97;;;1.50;;
82781;SDS011;72517;47.260;11.422;2024-02-15T13:36:20;5.15;;;1.40;;
82781;SDS011;72517;47.260;11.422;2024-02-15T13:38:49;4.20;;;1.33;;
82781;SDS011;72517;47.260;11.422;2024-02-15T13:41:16;3.45;;;1.67;;
82781;SDS011;72517;47.260;11.422;2024-02-15T13:43:43;3.28;;;1.40;;
82781;SDS011;72517;47.260;11.422;2024-02-15T13:46:10;2.50;;;1.23;;
82781;SDS011;72517;47.260;11.422;2024-02-15T13:48:37;6.55;;;1.33;;
82781;SDS011;72517;47.260;11.422;2024-02-15T13:51:04;6.00;;;1.13;;
82781;SDS011;72517;47.260;11.422;2024-02-15T13:53:34;5.07;;;1.25;;
82781;SDS011;72517;47.260;11.422;2024-02-15T13:56:01;7.63;;;1.27;;
82781;SDS011;72517;47.260;11.422;2024-02-15T13:58:28;4.57;;;1.58;;
82781;SDS011;72517;47.260;11.422;2024-02-15T14:00:56;7.03;;;1.30;;
82781;SDS011;72517;47.260;11.422;2024-02-15T14:03:25;8.13;;;1.40;;
82781;SDS011;72517;47.260;11.422;2024-02-15T14:05:52;6.38;;;1.45;;
82781;SDS011;72517;47.260;11.422;2024-02-15T14:08:19;4.10;;;1.42;;
82781;SDS011;72517;47.260;11.422;2024-02-15T14:10:47;6.50;;;1.38;;
82781;SDS011;72517;47.260;11.422;2024-02-15T14:13:14;10.45;;;1.38;;
82781;SDS011;72517;47.260;11.422;2024-02-15T14:15:41;5.90;;;1.50;;
82781;SDS011;72517;47.260;11.422;2024-02-15T14:18:09;9.18;;;2.25;;
82781;SDS011;72517;47.260;11.422;2024-02-15T14:20:38;7.70;;;1.90;;
82781;SDS011;72517;47.260;11.422;2024-02-15T14:25:38;5.35;;;1.73;;
82781;SDS011;72517;47.260;11.422;2024-02-15T14:28:05;10.30;;;2.40;;
82781;SDS011;72517;47.260;11.422;2024-02-15T14:30:36;3.75;;;1.70;;
82781;SDS011;72517;47.260;11.422;2024-02-15T14:33:20;6.78;;;2.28;;
82781;SDS011;72517;47.260;11.422;2024-02-15T14:35:47;4.60;;;2.15;;
82781;SDS011;72517;47.260;11.422;2024-02-15T14:38:15;4.57;;;1.63;;
82781;SDS011;72517;47.260;11.422;2024-02-15T14:40:44;6.30;;;1.67;;
82781;SDS011;72517;47.260;11.422;2024-02-15T14:43:15;7.03;;;1.90;;
82781;SDS011;72517;47.260;11.422;2024-02-15T14:45:45;3.78;;;1.85;;
82781;SDS011;72517;47.260;11.422;2024-02-15T14:48:13;8.13;;;2.08;;
82781;SDS011;72517;47.260;11.422;2024-02-15T14:50:42;7.47;;;2.08;;
82781;SDS011;72517;47.260;11.422;2024-02-15T14:53:11;9.90;;;3.10;;
82781;SDS011;72517;47.260;11.422;2024-02-15T14:55:40;8.60;;;2.58;;
82781;SDS011;72517;47.260;11.422;2024-02-15T14:58:10;6.80;;;2.20;;
82781;SDS011;72517;47.260;11.422;2024-02-15T15:00:41;6.25;;;1.83;;
82781;SDS011;72517;47.260;11.422;2024-02-15T15:03:09;4.72;;;1.50;;
82781;SDS011;72517;47.260;11.422;2024-02-15T15:05:38;6.13;;;1.90;;
82781;SDS011;72517;47.260;11.422;2024-02-15T15:08:22;4.03;;;1.70;;
82781;SDS011;72517;47.260;11.422;2024-02-15T15:11:06;5.85;;;1.20;;
82781;SDS011;72517;47.260;11.422;2024-02-15T15:13:47;5.63;;;1.80;;
82781;SDS011;72517;47.260;11.422;2024-02-15T15:16:14;4.93;;;1.60;;
82781;SDS011;72517;47.260;11.422;2024-02-15T15:18:43;5.07;;;1.67;;
82781;SDS011;72517;47.260;11.422;2024-02-15T15:21:11;8.13;;;1.80;;